sensor_id;sensor_type;location;lat;lon;timestamp;pressure;altitude;pressure_sealevel;temperature;humidity
8051;BME280;4068;42.158;24.732;2022-11-04T00:01:31;99921.47;;;11.38;100.00
8051;BME280;4068;42.158;24.732;2022-11-04T00:03:58;99936.91;;;11.44;100.00
8051;BME280;4068;42.158;24.732;2022-11-04T00:06:23;99931.97;;;11.39;100.00
8051;BME280;4068;42.158;24.732;2022-11-04T00:08:55;99925.09;;;11.37;100.00
8051;BME280;4068;42.158;24.732;2022-11-04T00:11:21;99927.03;;;11.35;100.00
8051;BME280;4068;42.158;24.732;2022-11-04T00:14:06;99932.06;;;11.27;100.00
8051;BME280;4068;42.158;24.732;2022-11-04T00:16:32;99921.94;;;11.20;100.00
8051;BME280;4068;42.158;24.732;2022-11-04T00:19:16;99927.81;;;11.13;100.00
8051;BME280;4068;42.158;24.732;2022-11-04T00:21:42;99930.13;;;11.06;100.00
8051;BME280;4068;42.158;24.732;2022-11-04T00:24:26;99914.13;;;10.83;100.00
8051;BME280;4068;42.158;24.732;2022-11-04T00:27:19;99929.59;;;10.90;100.00
8051;BME280;4068;42.158;24.732;2022-11-04T00:30:06;99935.97;;;10.87;100.00
8051;BME280;4068;42.158;24.732;2022-11-04T00:32:32;99940.03;;;10.80;100.00
8051;BME280;4068;42.158;24.732;2022-11-04T00:35:17;99931.72;;;10.73;100.00
8051;BME280;4068;42.158;24.732;2022-11-04T00:37:44;99935.75;;;10.66;100.00
8051;BME280;4068;42.158;24.732;2022-11-04T00:40:12;99934.75;;;10.56;100.00
8051;BME280;4068;42.158;24.732;2022-11-04T00:42:38;99937.03;;;10.49;100.00
8051;BME280;4068;42.158;24.732;2022-11-04T00:45:04;99919.50;;;10.35;100.00
8051;BME280;4068;42.158;24.732;2022-11-04T00:47:30;99939.53;;;10.39;100.00
8051;BME280;4068;42.158;24.732;2022-11-04T00:49:55;99946.00;;;10.35;100.00
8051;BME280;4068;42.158;24.732;2022-11-04T00:52:20;99949.03;;;10.29;100.00
8051;BME280;4068;42.158;24.732;2022-11-04T00:54:46;99943.59;;;10.19;100.00
8051;BME280;4068;42.158;24.732;2022-11-04T00:57:12;99939.06;;;10.08;100.00
8051;BME280;4068;42.158;24.732;2022-11-04T00:59:37;99922.47;;;9.93;100.00
8051;BME280;4068;42.158;24.732;2022-11-04T01:02:04;99936.34;;;9.97;100.00
8051;BME280;4068;42.158;24.732;2022-11-04T01:04:30;99931.38;;;9.92;100.00
8051;BME280;4068;42.158;24.732;2022-11-04T01:06:55;99935.31;;;9.87;100.00
8051;BME280;4068;42.158;24.732;2022-11-04T01:09:21;99935.00;;;9.78;100.00
8051;BME280;4068;42.158;24.732;2022-11-04T01:11:46;99936.94;;;9.76;100.00
8051;BME280;4068;42.158;24.732;2022-11-04T01:14:12;99929.28;;;9.72;100.00
8051;BME280;4068;42.158;24.732;2022-11-04T01:16:38;99918.47;;;9.62;100.00
8051;BME280;4068;42.158;24.732;2022-11-04T01:19:03;99929.50;;;9.68;100.00
8051;BME280;4068;42.158;24.732;2022-11-04T01:21:29;99911.22;;;9.53;100.00
8051;BME280;4068;42.158;24.732;2022-11-04T01:23:55;99912.47;;;9.47;100.00
8051;BME280;4068;42.158;24.732;2022-11-04T01:26:39;99925.94;;;9.44;100.00
8051;BME280;4068;42.158;24.732;2022-11-04T01:29:04;99930.06;;;9.35;100.00
8051;BME280;4068;42.158;24.732;2022-11-04T01:31:30;99923.69;;;9.25;100.00
8051;BME280;4068;42.158;24.732;2022-11-04T01:33:57;99924.03;;;9.20;100.00
8051;BME280;4068;42.158;24.732;2022-11-04T01:36:23;99905.72;;;9.04;100.00
8051;BME280;4068;42.158;24.732;2022-11-04T01:38:49;99929.22;;;9.09;100.00
8051;BME280;4068;42.158;24.732;2022-11-04T01:41:21;99925.41;;;9.13;100.00
8051;BME280;4068;42.158;24.732;2022-11-04T01:49:00;99874.78;;;8.79;100.00
8051;BME280;4068;42.158;24.732;2022-11-04T01:51:28;99880.63;;;8.84;100.00
8051;BME280;4068;42.158;24.732;2022-11-04T01:53:56;99906.03;;;9.00;100.00
8051;BME280;4068;42.158;24.732;2022-11-04T01:56:23;99882.94;;;8.76;100.00
8051;BME280;4068;42.158;24.732;2022-11-04T01:58:52;99906.25;;;8.96;100.00
8051;BME280;4068;42.158;24.732;2022-11-04T02:01:19;99912.91;;;8.89;100.00
8051;BME280;4068;42.158;24.732;2022-11-04T02:03:48;99908.88;;;8.84;100.00
8051;BME280;4068;42.158;24.732;2022-11-04T02:06:15;99869.91;;;8.60;100.00
8051;BME280;4068;42.158;24.732;2022-11-04T02:08:44;99901.44;;;8.76;100.00
8051;BME280;4068;42.158;24.732;2022-11-04T02:11:10;99902.69;;;8.70;100.00
8051;BME280;4068;42.158;24.732;2022-11-04T02:13:55;99888.19;;;8.63;100.00
8051;BME280;4068;42.158;24.732;2022-11-04T02:16:39;99884.50;;;8.66;100.00
8051;BME280;4068;42.158;24.732;2022-11-04T02:30:59;99878.69;;;8.33;100.00
8051;BME280;4068;42.158;24.732;2022-11-04T02:33:34;99876.25;;;8.30;100.00
8051;BME280;4068;42.158;24.732;2022-11-04T02:36:06;99875.41;;;8.29;100.00
8051;BME280;4068;42.158;24.732;2022-11-04T02:41:14;99877.06;;;8.30;100.00
8051;BME280;4068;42.158;24.732;2022-11-04T02:49:22;99879.09;;;8.27;100.00
8051;BME280;4068;42.158;24.732;2022-11-04T02:51:56;99878.31;;;8.25;100.00
8051;BME280;4068;42.158;24.732;2022-11-04T02:54:53;99875.41;;;8.29;100.00
8051;BME280;4068;42.158;24.732;2022-11-04T02:57:23;99872.22;;;8.24;100.00
8051;BME280;4068;42.158;24.732;2022-11-04T03:00:00;99873.34;;;8.20;100.00
8051;BME280;4068;42.158;24.732;2022-11-04T03:02:43;99872.63;;;8.18;100.00
8051;BME280;4068;42.158;24.732;2022-11-04T03:05:13;99836.19;;;7.96;100.00
8051;BME280;4068;42.158;24.732;2022-11-04T03:07:42;99835.34;;;7.95;100.00
8051;BME280;4068;42.158;24.732;2022-11-04T03:10:24;99866.19;;;8.22;100.00
8051;BME280;4068;42.158;24.732;2022-11-04T03:13:16;99864.59;;;8.20;100.00
8051;BME280;4068;42.158;24.732;2022-11-04T03:15:50;99839.59;;;7.98;100.00
8051;BME280;4068;42.158;24.732;2022-11-04T03:20:56;99854.34;;;8.01;100.00
8051;BME280;4068;42.158;24.732;2022-11-04T03:23:22;99872.63;;;8.18;100.00
8051;BME280;4068;42.158;24.732;2022-11-04T03:25:51;99878.84;;;8.17;100.00
8051;BME280;4068;42.158;24.732;2022-11-04T03:28:31;99872.06;;;8.13;100.00
8051;BME280;4068;42.158;24.732;2022-11-04T03:31:03;99890.34;;;8.16;100.00
8051;BME280;4068;42.158;24.732;2022-11-04T03:33:50;99881.69;;;8.14;100.00
8051;BME280;4068;42.158;24.732;2022-11-04T03:36:17;99892.06;;;8.17;100.00
8051;BME280;4068;42.158;24.732;2022-11-04T03:38:44;99896.28;;;8.20;100.00
8051;BME280;4068;42.158;24.732;2022-11-04T03:41:16;99871.22;;;8.12;100.00
8051;BME280;4068;42.158;24.732;2022-11-04T03:43:42;99893.91;;;8.29;100.00
8051;BME280;4068;42.158;24.732;2022-11-04T03:46:08;99887.41;;;8.21;100.00
8051;BME280;4068;42.158;24.732;2022-11-04T03:48:34;99881.47;;;8.17;100.00
8051;BME280;4068;42.158;24.732;2022-11-04T03:51:00;99892.06;;;8.17;100.00
8051;BME280;4068;42.158;24.732;2022-11-04T03:53:26;99879.94;;;8.27;100.00
8051;BME280;4068;42.158;24.732;2022-11-04T04:03:56;99875.66;;;8.79;100.00
8051;BME280;4068;42.158;24.732;2022-11-04T04:06:28;99851.41;;;8.73;100.00
8051;BME280;4068;42.158;24.732;2022-11-04T04:08:59;99875.34;;;9.10;100.00
8051;BME280;4068;42.158;24.732;2022-11-04T04:14:33;99855.44;;;9.30;100.00
8051;BME280;4068;42.158;24.732;2022-11-04T04:19:42;99876.38;;;9.46;100.00
8051;BME280;4068;42.158;24.732;2022-11-04T04:22:17;99875.75;;;9.42;100.00
8051;BME280;4068;42.158;24.732;2022-11-04T04:24:46;99858.06;;;9.30;100.00
8051;BME280;4068;42.158;24.732;2022-11-04T04:27:32;99874.78;;;9.30;100.00
8051;BME280;4068;42.158;24.732;2022-11-04T04:30:03;99882.00;;;9.41;100.00
8051;BME280;4068;42.158;24.732;2022-11-04T04:32:33;99888.22;;;9.53;100.00
8051;BME280;4068;42.158;24.732;2022-11-04T04:35:01;99875.31;;;9.48;100.00
8051;BME280;4068;42.158;24.732;2022-11-04T04:37:45;99882.19;;;9.51;100.00
8051;BME280;4068;42.158;24.732;2022-11-04T04:40:14;99881.03;;;9.42;100.00
8051;BME280;4068;42.158;24.732;2022-11-04T04:43:00;99887.06;;;9.44;100.00
8051;BME280;4068;42.158;24.732;2022-11-04T04:45:49;99874.13;;;9.53;100.00
8051;BME280;4068;42.158;24.732;2022-11-04T04:48:15;99885.03;;;9.61;100.00
8051;BME280;4068;42.158;24.732;2022-11-04T04:50:44;99864.84;;;9.47;100.00
8051;BME280;4068;42.158;24.732;2022-11-04T04:53:12;99879.84;;;9.59;100.00
8051;BME280;4068;42.158;24.732;2022-11-04T04:55:38;99891.69;;;9.66;100.00
8051;BME280;4068;42.158;24.732;2022-11-04T04:58:03;99888.53;;;9.61;100.00
8051;BME280;4068;42.158;24.732;2022-11-04T05:00:29;99898.16;;;9.62;100.00
8051;BME280;4068;42.158;24.732;2022-11-04T05:02:54;99868.31;;;9.47;100.00
8051;BME280;4068;42.158;24.732;2022-11-04T05:05:20;99890.22;;;9.62;100.00
8051;BME280;4068;42.158;24.732;2022-11-04T05:07:46;99894.25;;;9.68;100.00
8051;BME280;4068;42.158;24.732;2022-11-04T05:10:13;99860.47;;;9.59;100.00
8051;BME280;4068;42.158;24.732;2022-11-04T05:12:39;99883.19;;;9.74;100.00
8051;BME280;4068;42.158;24.732;2022-11-04T05:15:24;99887.97;;;9.82;100.00
8051;BME280;4068;42.158;24.732;2022-11-04T05:17:54;99895.16;;;9.80;100.00
8051;BME280;4068;42.158;24.732;2022-11-04T05:20:20;99894.09;;;9.82;100.00
8051;BME280;4068;42.158;24.732;2022-11-04T05:22:46;99859.41;;;9.61;100.00
8051;BME280;4068;42.158;24.732;2022-11-04T05:25:11;99891.25;;;9.73;100.00
8051;BME280;4068;42.158;24.732;2022-11-04T05:27:37;99899.41;;;9.82;100.00
8051;BME280;4068;42.158;24.732;2022-11-04T05:30:02;99899.63;;;9.79;100.00
8051;BME280;4068;42.158;24.732;2022-11-04T05:32:30;99902.66;;;9.86;100.00
8051;BME280;4068;42.158;24.732;2022-11-04T05:34:56;99901.88;;;9.97;100.00
8051;BME280;4068;42.158;24.732;2022-11-04T05:37:21;99897.00;;;10.04;100.00
8051;BME280;4068;42.158;24.732;2022-11-04T05:39:47;99918.94;;;10.30;100.00
8051;BME280;4068;42.158;24.732;2022-11-04T05:42:12;99905.81;;;10.28;100.00
8051;BME280;4068;42.158;24.732;2022-11-04T05:44:38;99928.56;;;10.44;100.00
8051;BME280;4068;42.158;24.732;2022-11-04T05:47:03;99921.06;;;10.38;100.00
8051;BME280;4068;42.158;24.732;2022-11-04T05:49:28;99926.88;;;10.43;100.00
8051;BME280;4068;42.158;24.732;2022-11-04T05:51:54;99929.91;;;10.49;100.00
8051;BME280;4068;42.158;24.732;2022-11-04T05:54:19;99929.53;;;10.43;100.00
8051;BME280;4068;42.158;24.732;2022-11-04T05:56:45;99926.91;;;10.54;100.00
8051;BME280;4068;42.158;24.732;2022-11-04T05:59:10;99928.75;;;10.53;100.00
8051;BME280;4068;42.158;24.732;2022-11-04T06:01:40;99926.38;;;10.62;100.00
8051;BME280;4068;42.158;24.732;2022-11-04T06:04:12;99900.97;;;10.46;100.00
8051;BME280;4068;42.158;24.732;2022-11-04T06:06:38;99940.91;;;10.80;100.00
8051;BME280;4068;42.158;24.732;2022-11-04T06:09:04;99943.09;;;10.86;100.00
8051;BME280;4068;42.158;24.732;2022-11-04T06:11:30;99945.38;;;10.91;99.76
8051;BME280;4068;42.158;24.732;2022-11-04T06:13:56;99946.34;;;10.90;99.56
8051;BME280;4068;42.158;24.732;2022-11-04T06:16:22;99948.66;;;10.95;99.75
8051;BME280;4068;42.158;24.732;2022-11-04T06:18:48;99953.38;;;11.02;99.43
8051;BME280;4068;42.158;24.732;2022-11-04T06:23:42;99955.00;;;11.16;98.33
8051;BME280;4068;42.158;24.732;2022-11-04T06:26:09;99930.56;;;11.00;97.94
8051;BME280;4068;42.158;24.732;2022-11-04T06:28:35;99965.34;;;11.08;97.56
8051;BME280;4068;42.158;24.732;2022-11-04T06:31:03;99959.19;;;11.08;97.82
8051;BME280;4068;42.158;24.732;2022-11-04T06:33:29;99967.25;;;10.95;98.55
8051;BME280;4068;42.158;24.732;2022-11-04T06:35:59;99958.66;;;10.91;99.31
8051;BME280;4068;42.158;24.732;2022-11-04T06:38:25;99938.38;;;10.90;99.38
8051;BME280;4068;42.158;24.732;2022-11-04T06:40:51;99960.53;;;11.13;98.42
8051;BME280;4068;42.158;24.732;2022-11-04T06:43:17;99965.09;;;11.11;98.54
8051;BME280;4068;42.158;24.732;2022-11-04T06:45:42;99923.69;;;10.97;98.05
8051;BME280;4068;42.158;24.732;2022-11-04T06:48:08;99940.97;;;11.14;98.09
8051;BME280;4068;42.158;24.732;2022-11-04T06:53:00;99964.09;;;11.48;97.02
8051;BME280;4068;42.158;24.732;2022-11-04T06:55:26;99940.19;;;11.48;96.52
8051;BME280;4068;42.158;24.732;2022-11-04T06:57:51;99960.25;;;11.63;96.05
8051;BME280;4068;42.158;24.732;2022-11-04T07:00:16;99962.91;;;11.74;95.47
8051;BME280;4068;42.158;24.732;2022-11-04T07:02:42;99969.06;;;11.86;95.04
8051;BME280;4068;42.158;24.732;2022-11-04T07:05:07;99963.38;;;12.02;93.84
8051;BME280;4068;42.158;24.732;2022-11-04T07:07:33;99931.97;;;11.85;93.27
8051;BME280;4068;42.158;24.732;2022-11-04T07:09:58;99957.63;;;11.97;93.59
8051;BME280;4068;42.158;24.732;2022-11-04T07:12:24;99943.34;;;11.98;93.19
8051;BME280;4068;42.158;24.732;2022-11-04T07:14:52;99961.81;;;12.11;93.21
8051;BME280;4068;42.158;24.732;2022-11-04T07:17:19;99959.16;;;12.11;93.41
8051;BME280;4068;42.158;24.732;2022-11-04T07:19:45;99949.00;;;12.16;92.99
8051;BME280;4068;42.158;24.732;2022-11-04T07:22:10;99952.22;;;12.31;92.69
8051;BME280;4068;42.158;24.732;2022-11-04T07:24:35;99957.88;;;12.38;92.34
8051;BME280;4068;42.158;24.732;2022-11-04T07:27:01;99941.47;;;12.33;91.87
8051;BME280;4068;42.158;24.732;2022-11-04T07:29:27;99939.84;;;12.53;91.45
8051;BME280;4068;42.158;24.732;2022-11-04T07:31:53;99943.56;;;12.62;91.10
8051;BME280;4068;42.158;24.732;2022-11-04T07:34:18;99923.88;;;12.53;91.36
8051;BME280;4068;42.158;24.732;2022-11-04T07:36:43;99923.69;;;12.87;89.72
8051;BME280;4068;42.158;24.732;2022-11-04T07:39:09;99924.56;;;12.87;89.84
8051;BME280;4068;42.158;24.732;2022-11-04T07:41:34;99931.44;;;13.11;89.09
8051;BME280;4068;42.158;24.732;2022-11-04T07:44:00;99907.09;;;13.16;87.29
8051;BME280;4068;42.158;24.732;2022-11-04T07:46:29;99915.47;;;13.11;87.22
8051;BME280;4068;42.158;24.732;2022-11-04T07:48:59;99895.91;;;13.22;87.80
8051;BME280;4068;42.158;24.732;2022-11-04T07:51:25;99912.72;;;13.43;86.96
8051;BME280;4068;42.158;24.732;2022-11-04T07:53:50;99897.44;;;13.36;87.38
8051;BME280;4068;42.158;24.732;2022-11-04T07:56:16;99907.94;;;13.68;85.47
8051;BME280;4068;42.158;24.732;2022-11-04T07:58:43;99891.09;;;13.68;86.10
8051;BME280;4068;42.158;24.732;2022-11-04T08:01:13;99899.56;;;13.83;85.53
8051;BME280;4068;42.158;24.732;2022-11-04T08:03:40;99895.28;;;14.21;85.58
8051;BME280;4068;42.158;24.732;2022-11-04T08:06:10;99895.88;;;14.63;83.51
8051;BME280;4068;42.158;24.732;2022-11-04T08:08:36;99890.00;;;14.79;81.73
8051;BME280;4068;42.158;24.732;2022-11-04T08:11:22;99880.22;;;15.08;81.22
8051;BME280;4068;42.158;24.732;2022-11-04T08:13:53;99882.50;;;15.50;80.12
8051;BME280;4068;42.158;24.732;2022-11-04T08:16:21;99858.19;;;15.43;77.12
8051;BME280;4068;42.158;24.732;2022-11-04T08:18:48;99882.41;;;15.69;77.03
8051;BME280;4068;42.158;24.732;2022-11-04T08:21:14;99875.97;;;15.62;76.99
8051;BME280;4068;42.158;24.732;2022-11-04T08:23:40;99880.41;;;15.81;76.91
8051;BME280;4068;42.158;24.732;2022-11-04T08:26:11;99869.91;;;15.98;75.79
8051;BME280;4068;42.158;24.732;2022-11-04T08:28:37;99862.09;;;15.86;77.36
8051;BME280;4068;42.158;24.732;2022-11-04T08:31:06;99868.81;;;16.09;75.83
8051;BME280;4068;42.158;24.732;2022-11-04T08:33:32;99868.59;;;16.20;76.29
8051;BME280;4068;42.158;24.732;2022-11-04T08:36:07;99865.63;;;16.41;75.35
8051;BME280;4068;42.158;24.732;2022-11-04T08:38:34;99856.59;;;16.60;73.87
8051;BME280;4068;42.158;24.732;2022-11-04T08:41:01;99861.28;;;16.84;74.19
8051;BME280;4068;42.158;24.732;2022-11-04T08:43:28;99853.13;;;17.12;73.32
8051;BME280;4068;42.158;24.732;2022-11-04T08:45:53;99831.22;;;17.17;72.40
8051;BME280;4068;42.158;24.732;2022-11-04T08:48:19;99825.59;;;17.28;71.53
8051;BME280;4068;42.158;24.732;2022-11-04T08:50:49;99839.56;;;17.48;71.67
8051;BME280;4068;42.158;24.732;2022-11-04T08:53:15;99802.56;;;17.52;71.01
8051;BME280;4068;42.158;24.732;2022-11-04T08:55:40;99830.44;;;17.67;71.48
8051;BME280;4068;42.158;24.732;2022-11-04T08:58:06;99786.78;;;17.40;72.90
8051;BME280;4068;42.158;24.732;2022-11-04T09:00:31;99818.53;;;17.62;73.44
8051;BME280;4068;42.158;24.732;2022-11-04T09:02:57;99811.69;;;17.75;73.61
8051;BME280;4068;42.158;24.732;2022-11-04T09:05:23;99825.34;;;18.07;71.09
8051;BME280;4068;42.158;24.732;2022-11-04T09:07:48;99807.94;;;18.03;71.60
8051;BME280;4068;42.158;24.732;2022-11-04T09:10:14;99803.22;;;17.97;72.07
8051;BME280;4068;42.158;24.732;2022-11-04T09:12:41;99806.25;;;18.02;72.11
8051;BME280;4068;42.158;24.732;2022-11-04T09:15:07;99805.75;;;18.06;73.20
8051;BME280;4068;42.158;24.732;2022-11-04T09:17:32;99790.31;;;18.08;75.62
8051;BME280;4068;42.158;24.732;2022-11-04T09:19:58;99763.31;;;18.18;75.27
8051;BME280;4068;42.158;24.732;2022-11-04T09:22:23;99802.25;;;18.47;72.70
8051;BME280;4068;42.158;24.732;2022-11-04T09:24:49;99767.66;;;18.44;71.95
8051;BME280;4068;42.158;24.732;2022-11-04T09:27:14;99789.31;;;18.59;71.82
8051;BME280;4068;42.158;24.732;2022-11-04T09:29:40;99782.94;;;18.43;72.49
8051;BME280;4068;42.158;24.732;2022-11-04T09:32:06;99781.44;;;18.16;73.26
8051;BME280;4068;42.158;24.732;2022-11-04T09:34:32;99744.09;;;17.55;75.44
8051;BME280;4068;42.158;24.732;2022-11-04T09:36:58;99764.00;;;17.45;76.86
8051;BME280;4068;42.158;24.732;2022-11-04T09:39:24;99776.97;;;17.15;78.50
8051;BME280;4068;42.158;24.732;2022-11-04T09:44:40;99758.69;;;16.58;80.86
8051;BME280;4068;42.158;24.732;2022-11-04T09:47:10;99758.00;;;16.29;81.62
8051;BME280;4068;42.158;24.732;2022-11-04T09:49:40;99733.94;;;16.11;83.20
8051;BME280;4068;42.158;24.732;2022-11-04T09:52:20;99749.47;;;16.08;83.58
8051;BME280;4068;42.158;24.732;2022-11-04T09:54:54;99746.00;;;15.97;84.52
8051;BME280;4068;42.158;24.732;2022-11-04T09:57:22;99726.22;;;15.72;85.47
8051;BME280;4068;42.158;24.732;2022-11-04T09:59:48;99729.28;;;15.95;85.33
8051;BME280;4068;42.158;24.732;2022-11-04T10:02:35;99718.81;;;15.84;84.73
8051;BME280;4068;42.158;24.732;2022-11-04T10:14:08;99703.91;;;15.81;85.62
8051;BME280;4068;42.158;24.732;2022-11-04T10:22:31;99687.16;;;15.97;84.84
8051;BME280;4068;42.158;24.732;2022-11-04T10:25:17;99652.97;;;15.83;85.27
8051;BME280;4068;42.158;24.732;2022-11-04T10:27:46;99678.97;;;15.99;84.96
8051;BME280;4068;42.158;24.732;2022-11-04T10:35:41;99670.34;;;16.31;84.51
8051;BME280;4068;42.158;24.732;2022-11-04T10:38:28;99638.94;;;16.33;82.99
8051;BME280;4068;42.158;24.732;2022-11-04T10:40:56;99641.63;;;16.42;82.18
8051;BME280;4068;42.158;24.732;2022-11-04T10:43:35;99649.22;;;16.54;82.14
8051;BME280;4068;42.158;24.732;2022-11-04T10:49:23;99638.72;;;16.61;81.35
8051;BME280;4068;42.158;24.732;2022-11-04T10:51:55;99631.91;;;16.67;81.45
8051;BME280;4068;42.158;24.732;2022-11-04T10:54:22;99634.66;;;16.83;80.89
8051;BME280;4068;42.158;24.732;2022-11-04T10:56:51;99628.53;;;16.99;79.41
8051;BME280;4068;42.158;24.732;2022-11-04T10:59:56;99623.31;;;16.89;78.94
8051;BME280;4068;42.158;24.732;2022-11-04T11:02:42;99624.50;;;16.95;79.96
8051;BME280;4068;42.158;24.732;2022-11-04T11:07:45;99618.84;;;16.64;80.27
8051;BME280;4068;42.158;24.732;2022-11-04T11:10:26;99611.22;;;16.85;79.62
8051;BME280;4068;42.158;24.732;2022-11-04T11:20:34;99596.09;;;17.11;78.83
8051;BME280;4068;42.158;24.732;2022-11-04T11:23:03;99597.59;;;17.30;78.16
8051;BME280;4068;42.158;24.732;2022-11-04T11:25:34;99565.13;;;17.41;76.17
8051;BME280;4068;42.158;24.732;2022-11-04T11:28:08;99577.38;;;17.52;75.73
8051;BME280;4068;42.158;24.732;2022-11-04T11:33:32;99571.81;;;17.70;74.89
8051;BME280;4068;42.158;24.732;2022-11-04T11:38:31;99558.22;;;18.04;73.58
8051;BME280;4068;42.158;24.732;2022-11-04T11:41:07;99559.50;;;18.25;72.23
8051;BME280;4068;42.158;24.732;2022-11-04T11:43:34;99567.88;;;18.30;71.85
8051;BME280;4068;42.158;24.732;2022-11-04T11:46:01;99551.81;;;18.05;72.43
8051;BME280;4068;42.158;24.732;2022-11-04T11:51:03;99544.13;;;18.02;72.90
8051;BME280;4068;42.158;24.732;2022-11-04T11:53:29;99553.78;;;18.20;72.36
8051;BME280;4068;42.158;24.732;2022-11-04T11:56:23;99546.41;;;18.22;71.31
8051;BME280;4068;42.158;24.732;2022-11-04T11:58:55;99546.91;;;18.25;70.85
8051;BME280;4068;42.158;24.732;2022-11-04T12:04:27;99529.75;;;18.35;71.00
8051;BME280;4068;42.158;24.732;2022-11-04T12:13:09;99519.50;;;18.70;69.99
8051;BME280;4068;42.158;24.732;2022-11-04T12:21:18;99498.88;;;18.70;69.03
8051;BME280;4068;42.158;24.732;2022-11-04T12:26:51;99490.28;;;18.75;68.16
8051;BME280;4068;42.158;24.732;2022-11-04T12:29:26;99491.59;;;18.79;68.25
8051;BME280;4068;42.158;24.732;2022-11-04T12:32:06;99496.13;;;18.78;66.32
8051;BME280;4068;42.158;24.732;2022-11-04T12:47:46;99449.94;;;18.28;67.64
8051;BME280;4068;42.158;24.732;2022-11-04T12:56:11;99448.06;;;17.89;72.08
8051;BME280;4068;42.158;24.732;2022-11-04T13:06:56;99457.00;;;17.65;72.83
8051;BME280;4068;42.158;24.732;2022-11-04T13:09:42;99447.63;;;17.69;72.46
8051;BME280;4068;42.158;24.732;2022-11-04T13:12:37;99451.63;;;17.73;72.36
8051;BME280;4068;42.158;24.732;2022-11-04T13:15:14;99448.59;;;17.76;72.50
8051;BME280;4068;42.158;24.732;2022-11-04T13:17:42;99410.81;;;17.55;72.26
8051;BME280;4068;42.158;24.732;2022-11-04T13:22:45;99431.38;;;17.63;72.39
8051;BME280;4068;42.158;24.732;2022-11-04T13:25:38;99424.91;;;17.40;73.37
8051;BME280;4068;42.158;24.732;2022-11-04T13:28:10;99436.16;;;17.36;72.96
8051;BME280;4068;42.158;24.732;2022-11-04T13:30:52;99410.41;;;17.02;74.06
8051;BME280;4068;42.158;24.732;2022-11-04T13:39:27;99398.81;;;16.77;75.47
8051;BME280;4068;42.158;24.732;2022-11-04T13:44:53;99433.63;;;16.77;77.35
8051;BME280;4068;42.158;24.732;2022-11-04T13:47:56;99431.44;;;16.64;78.45
8051;BME280;4068;42.158;24.732;2022-11-04T13:50:34;99410.50;;;16.51;78.60
8051;BME280;4068;42.158;24.732;2022-11-04T13:53:02;99426.56;;;16.67;79.02
8051;BME280;4068;42.158;24.732;2022-11-04T13:55:28;99417.03;;;16.73;78.93
8051;BME280;4068;42.158;24.732;2022-11-04T13:58:02;99422.91;;;16.85;78.63
8051;BME280;4068;42.158;24.732;2022-11-04T14:00:31;99427.13;;;16.87;78.52
8051;BME280;4068;42.158;24.732;2022-11-04T14:02:58;99439.69;;;16.95;77.54
8051;BME280;4068;42.158;24.732;2022-11-04T14:10:44;99429.41;;;16.66;79.00
8051;BME280;4068;42.158;24.732;2022-11-04T14:18:47;99399.97;;;16.58;78.66
8051;BME280;4068;42.158;24.732;2022-11-04T14:21:18;99412.69;;;16.64;79.05
8051;BME280;4068;42.158;24.732;2022-11-04T14:23:46;99410.69;;;16.66;79.05
8051;BME280;4068;42.158;24.732;2022-11-04T14:26:15;99416.53;;;16.61;79.30
8051;BME280;4068;42.158;24.732;2022-11-04T14:28:48;99418.72;;;16.58;79.44
8051;BME280;4068;42.158;24.732;2022-11-04T14:31:34;99388.06;;;16.35;79.52
8051;BME280;4068;42.158;24.732;2022-11-04T14:34:00;99414.34;;;16.48;79.77
8051;BME280;4068;42.158;24.732;2022-11-04T14:43:54;99386.56;;;16.33;79.86
8051;BME280;4068;42.158;24.732;2022-11-04T14:46:21;99377.34;;;16.19;80.21
8051;BME280;4068;42.158;24.732;2022-11-04T14:48:51;99410.78;;;16.31;80.38
8051;BME280;4068;42.158;24.732;2022-11-04T14:51:27;99412.63;;;16.22;80.88
8051;BME280;4068;42.158;24.732;2022-11-04T14:54:01;99422.78;;;16.11;81.14
8051;BME280;4068;42.158;24.732;2022-11-04T14:56:27;99419.72;;;15.97;81.78
8051;BME280;4068;42.158;24.732;2022-11-04T14:58:56;99411.97;;;15.86;82.55
8051;BME280;4068;42.158;24.732;2022-11-04T15:01:23;99414.41;;;15.71;83.31
8051;BME280;4068;42.158;24.732;2022-11-04T15:03:51;99388.72;;;15.44;84.27
8051;BME280;4068;42.158;24.732;2022-11-04T15:06:26;99406.78;;;15.50;85.20
8051;BME280;4068;42.158;24.732;2022-11-04T15:08:52;99387.41;;;15.22;85.77
8051;BME280;4068;42.158;24.732;2022-11-04T15:11:26;99413.19;;;15.31;86.34
8051;BME280;4068;42.158;24.732;2022-11-04T15:16:44;99426.25;;;15.16;87.58
8051;BME280;4068;42.158;24.732;2022-11-04T15:19:17;99407.88;;;15.13;87.90
8051;BME280;4068;42.158;24.732;2022-11-04T15:21:46;99411.53;;;15.12;88.20
8051;BME280;4068;42.158;24.732;2022-11-04T15:24:15;99408.53;;;15.07;88.48
8051;BME280;4068;42.158;24.732;2022-11-04T15:26:42;99401.91;;;14.93;89.99
8051;BME280;4068;42.158;24.732;2022-11-04T15:29:10;99397.94;;;14.79;90.40
8051;BME280;4068;42.158;24.732;2022-11-04T15:31:38;99408.25;;;14.74;91.35
8051;BME280;4068;42.158;24.732;2022-11-04T15:34:05;99365.78;;;14.44;91.38
8051;BME280;4068;42.158;24.732;2022-11-04T15:36:37;99417.41;;;14.71;92.31
8051;BME280;4068;42.158;24.732;2022-11-04T15:41:37;99406.91;;;14.70;92.79
8051;BME280;4068;42.158;24.732;2022-11-04T15:44:25;99408.78;;;14.59;93.12
8051;BME280;4068;42.158;24.732;2022-11-04T15:46:59;99414.19;;;14.49;93.55
8051;BME280;4068;42.158;24.732;2022-11-04T15:51:54;99398.63;;;14.27;95.15
8051;BME280;4068;42.158;24.732;2022-11-04T15:54:23;99375.81;;;14.14;96.18
8051;BME280;4068;42.158;24.732;2022-11-04T15:56:52;99407.03;;;14.22;96.64
8051;BME280;4068;42.158;24.732;2022-11-04T16:01:51;99413.50;;;14.02;97.08
8051;BME280;4068;42.158;24.732;2022-11-04T16:04:20;99421.81;;;13.98;97.27
8051;BME280;4068;42.158;24.732;2022-11-04T16:07:03;99426.19;;;13.90;97.39
8051;BME280;4068;42.158;24.732;2022-11-04T16:09:29;99424.25;;;13.82;97.97
8051;BME280;4068;42.158;24.732;2022-11-04T16:12:11;99426.84;;;13.74;99.10
8051;BME280;4068;42.158;24.732;2022-11-04T16:14:46;99394.00;;;13.45;100.00
8051;BME280;4068;42.158;24.732;2022-11-04T16:17:11;99413.00;;;13.60;100.00
8051;BME280;4068;42.158;24.732;2022-11-04T16:19:37;99418.63;;;13.57;100.00
8051;BME280;4068;42.158;24.732;2022-11-04T16:22:05;99419.44;;;13.58;100.00